Murphy's Hourly Summary for Thursday, April 20, 2017
Hour Temp
(f)
RH
(%)
Solar Rad.
(MJ/m2)
Rainfall
(in)
Wind
(mph)
4/20/2017 12:00 AM 72 80 0 0 5.12
4/20/2017 1:00 AM 70 82 0 0 4.87
4/20/2017 2:00 AM 70 84 0 0 5.74
4/20/2017 3:00 AM 69 86 0 0 4.68
4/20/2017 4:00 AM 68 89 0 0 5.23
4/20/2017 5:00 AM 68 88 0 0 5.25
4/20/2017 6:00 AM 69 81 0 0 6.57
4/20/2017 7:00 AM 69 80 0 0 5.26
4/20/2017 8:00 AM 70 80 0.12 0 4.97
4/20/2017 9:00 AM 70 79 0.31 0 4.9
4/20/2017 10:00 AM 71 75 0.7 0 4.58
4/20/2017 11:00 AM 73 70 1.03 0 4.4
4/20/2017 12:00 PM 75 66 1.82 0 4.73
4/20/2017 1:00 PM 76 63 1.84 0 5.26
4/20/2017 2:00 PM 79 58 2.98 0 5.42
4/20/2017 3:00 PM 80 54 3.15 0 5.51
4/20/2017 4:00 PM 81 50 2.92 0 4.99
4/20/2017 5:00 PM 81 51 1.28 0 4.55
4/20/2017 6:00 PM 81 51 1.47 0 5.16
4/20/2017 7:00 PM 80 52 0.56 0 4.67
4/20/2017 8:00 PM 78 58 0.09 0 2.8
4/20/2017 9:00 PM 77 63 0 0 1.53
4/20/2017 10:00 PM 75 66 0 0 0.49
4/20/2017 11:00 PM 73 71 0 0 1.72
Data Summary 73 69 18.27 0.00 4.52